sensor_id;sensor_type;location;lat;lon;timestamp;P1;durP1;ratioP1;P2;durP2;ratioP2
22439;SDS011;11387;51.612;7.210;2022-08-01T00:01:52;22.30;;;14.07;;
22439;SDS011;11387;51.612;7.210;2022-08-01T00:04:57;24.05;;;16.17;;
22439;SDS011;11387;51.612;7.210;2022-08-01T00:07:59;26.15;;;16.02;;
22439;SDS011;11387;51.612;7.210;2022-08-01T00:11:02;25.25;;;16.55;;
22439;SDS011;11387;51.612;7.210;2022-08-01T00:14:05;24.13;;;15.05;;
22439;SDS011;11387;51.612;7.210;2022-08-01T00:17:08;27.98;;;16.65;;
22439;SDS011;11387;51.612;7.210;2022-08-01T00:20:13;26.02;;;16.27;;
22439;SDS011;11387;51.612;7.210;2022-08-01T00:23:16;23.02;;;14.82;;
22439;SDS011;11387;51.612;7.210;2022-08-01T00:26:18;25.30;;;15.18;;
22439;SDS011;11387;51.612;7.210;2022-08-01T00:29:21;24.30;;;13.60;;
22439;SDS011;11387;51.612;7.210;2022-08-01T00:32:44;23.48;;;14.73;;
22439;SDS011;11387;51.612;7.210;2022-08-01T00:35:47;27.63;;;14.93;;
22439;SDS011;11387;51.612;7.210;2022-08-01T00:38:50;27.25;;;14.73;;
22439;SDS011;11387;51.612;7.210;2022-08-01T00:41:53;23.58;;;15.05;;
22439;SDS011;11387;51.612;7.210;2022-08-01T00:45:00;22.08;;;14.73;;
22439;SDS011;11387;51.612;7.210;2022-08-01T00:48:03;24.77;;;13.93;;
22439;SDS011;11387;51.612;7.210;2022-08-01T00:51:07;21.17;;;14.18;;
22439;SDS011;11387;51.612;7.210;2022-08-01T00:54:10;23.45;;;14.50;;
22439;SDS011;11387;51.612;7.210;2022-08-01T00:57:16;24.55;;;14.48;;
22439;SDS011;11387;51.612;7.210;2022-08-01T01:00:39;25.02;;;15.73;;
22439;SDS011;11387;51.612;7.210;2022-08-01T01:03:54;27.55;;;16.40;;
22439;SDS011;11387;51.612;7.210;2022-08-01T01:07:02;24.42;;;16.95;;
22439;SDS011;11387;51.612;7.210;2022-08-01T01:10:09;31.63;;;17.35;;
22439;SDS011;11387;51.612;7.210;2022-08-01T01:13:15;27.52;;;16.38;;
22439;SDS011;11387;51.612;7.210;2022-08-01T01:16:20;25.40;;;16.38;;
22439;SDS011;11387;51.612;7.210;2022-08-01T01:19:24;30.20;;;16.50;;
22439;SDS011;11387;51.612;7.210;2022-08-01T01:22:36;28.25;;;16.75;;
22439;SDS011;11387;51.612;7.210;2022-08-01T01:29:06;28.38;;;17.25;;
22439;SDS011;11387;51.612;7.210;2022-08-01T01:32:10;30.27;;;16.83;;
22439;SDS011;11387;51.612;7.210;2022-08-01T01:35:16;28.13;;;15.80;;
22439;SDS011;11387;51.612;7.210;2022-08-01T01:38:21;27.95;;;17.23;;
22439;SDS011;11387;51.612;7.210;2022-08-01T01:41:24;29.63;;;17.42;;
22439;SDS011;11387;51.612;7.210;2022-08-01T01:44:39;29.85;;;16.52;;
22439;SDS011;11387;51.612;7.210;2022-08-01T01:47:49;24.60;;;16.40;;
22439;SDS011;11387;51.612;7.210;2022-08-01T01:50:53;27.67;;;16.00;;
22439;SDS011;11387;51.612;7.210;2022-08-01T01:53:56;29.55;;;16.10;;
22439;SDS011;11387;51.612;7.210;2022-08-01T01:56:59;24.92;;;15.18;;
22439;SDS011;11387;51.612;7.210;2022-08-01T02:00:04;34.00;;;15.23;;
22439;SDS011;11387;51.612;7.210;2022-08-01T02:03:09;27.33;;;15.48;;
22439;SDS011;11387;51.612;7.210;2022-08-01T02:06:13;25.55;;;14.63;;
22439;SDS011;11387;51.612;7.210;2022-08-01T02:09:16;25.23;;;15.27;;
22439;SDS011;11387;51.612;7.210;2022-08-01T02:15:25;28.00;;;15.48;;
22439;SDS011;11387;51.612;7.210;2022-08-01T02:18:28;24.88;;;13.93;;
22439;SDS011;11387;51.612;7.210;2022-08-01T02:21:32;30.58;;;14.30;;
22439;SDS011;11387;51.612;7.210;2022-08-01T02:24:39;26.80;;;15.25;;
22439;SDS011;11387;51.612;7.210;2022-08-01T02:27:44;30.55;;;15.88;;
22439;SDS011;11387;51.612;7.210;2022-08-01T02:30:51;24.67;;;14.90;;
22439;SDS011;11387;51.612;7.210;2022-08-01T02:33:57;24.65;;;14.60;;
22439;SDS011;11387;51.612;7.210;2022-08-01T02:37:01;31.50;;;15.20;;
22439;SDS011;11387;51.612;7.210;2022-08-01T02:40:05;28.00;;;14.60;;
22439;SDS011;11387;51.612;7.210;2022-08-01T02:43:15;28.77;;;15.32;;
22439;SDS011;11387;51.612;7.210;2022-08-01T02:46:25;27.38;;;15.82;;
22439;SDS011;11387;51.612;7.210;2022-08-01T02:49:31;25.30;;;14.68;;
22439;SDS011;11387;51.612;7.210;2022-08-01T02:52:35;26.52;;;15.27;;
22439;SDS011;11387;51.612;7.210;2022-08-01T02:55:38;24.63;;;15.00;;
22439;SDS011;11387;51.612;7.210;2022-08-01T02:58:42;31.33;;;14.32;;
22439;SDS011;11387;51.612;7.210;2022-08-01T03:01:47;25.42;;;14.55;;
22439;SDS011;11387;51.612;7.210;2022-08-01T03:04:50;26.30;;;14.48;;
22439;SDS011;11387;51.612;7.210;2022-08-01T03:07:57;27.38;;;15.15;;
22439;SDS011;11387;51.612;7.210;2022-08-01T03:11:04;24.73;;;13.77;;
22439;SDS011;11387;51.612;7.210;2022-08-01T03:14:07;31.38;;;15.48;;
22439;SDS011;11387;51.612;7.210;2022-08-01T03:17:12;27.98;;;14.35;;
22439;SDS011;11387;51.612;7.210;2022-08-01T03:20:16;28.50;;;15.00;;
22439;SDS011;11387;51.612;7.210;2022-08-01T03:23:18;26.17;;;14.52;;
22439;SDS011;11387;51.612;7.210;2022-08-01T03:26:38;29.38;;;15.52;;
22439;SDS011;11387;51.612;7.210;2022-08-01T03:29:41;28.75;;;14.68;;
22439;SDS011;11387;51.612;7.210;2022-08-01T03:32:47;30.67;;;15.80;;
22439;SDS011;11387;51.612;7.210;2022-08-01T03:35:52;30.95;;;15.77;;
22439;SDS011;11387;51.612;7.210;2022-08-01T03:38:57;30.88;;;15.23;;
22439;SDS011;11387;51.612;7.210;2022-08-01T03:45:03;29.40;;;15.98;;
22439;SDS011;11387;51.612;7.210;2022-08-01T03:48:10;26.50;;;15.95;;
22439;SDS011;11387;51.612;7.210;2022-08-01T03:51:15;27.25;;;15.75;;
22439;SDS011;11387;51.612;7.210;2022-08-01T03:54:20;26.87;;;16.00;;
22439;SDS011;11387;51.612;7.210;2022-08-01T03:57:23;27.95;;;14.90;;
22439;SDS011;11387;51.612;7.210;2022-08-01T04:00:37;26.33;;;14.23;;
22439;SDS011;11387;51.612;7.210;2022-08-01T04:03:42;27.52;;;15.52;;
22439;SDS011;11387;51.612;7.210;2022-08-01T04:06:47;35.50;;;15.30;;
22439;SDS011;11387;51.612;7.210;2022-08-01T04:09:53;24.13;;;14.40;;
22439;SDS011;11387;51.612;7.210;2022-08-01T04:12:55;24.67;;;13.60;;
22439;SDS011;11387;51.612;7.210;2022-08-01T04:15:58;27.15;;;14.40;;
22439;SDS011;11387;51.612;7.210;2022-08-01T04:19:02;27.70;;;13.38;;
22439;SDS011;11387;51.612;7.210;2022-08-01T04:22:09;25.35;;;12.80;;
22439;SDS011;11387;51.612;7.210;2022-08-01T04:25:14;20.02;;;11.98;;
22439;SDS011;11387;51.612;7.210;2022-08-01T04:28:18;22.23;;;11.88;;
22439;SDS011;11387;51.612;7.210;2022-08-01T04:31:21;24.10;;;11.50;;
22439;SDS011;11387;51.612;7.210;2022-08-01T04:34:28;23.63;;;11.73;;
22439;SDS011;11387;51.612;7.210;2022-08-01T04:37:50;20.05;;;11.32;;
22439;SDS011;11387;51.612;7.210;2022-08-01T04:40:53;17.85;;;10.77;;
22439;SDS011;11387;51.612;7.210;2022-08-01T04:43:56;19.75;;;10.68;;
22439;SDS011;11387;51.612;7.210;2022-08-01T04:47:00;19.52;;;10.18;;
22439;SDS011;11387;51.612;7.210;2022-08-01T04:50:07;17.98;;;10.05;;
22439;SDS011;11387;51.612;7.210;2022-08-01T04:53:12;16.63;;;8.82;;
22439;SDS011;11387;51.612;7.210;2022-08-01T04:56:15;16.15;;;8.80;;
22439;SDS011;11387;51.612;7.210;2022-08-01T04:59:18;18.50;;;9.38;;
22439;SDS011;11387;51.612;7.210;2022-08-01T05:02:38;14.82;;;8.23;;
22439;SDS011;11387;51.612;7.210;2022-08-01T05:05:42;14.85;;;8.68;;
22439;SDS011;11387;51.612;7.210;2022-08-01T05:08:45;13.30;;;8.02;;
22439;SDS011;11387;51.612;7.210;2022-08-01T05:11:47;18.05;;;8.93;;
22439;SDS011;11387;51.612;7.210;2022-08-01T05:14:50;16.58;;;8.65;;
22439;SDS011;11387;51.612;7.210;2022-08-01T05:17:53;16.55;;;8.52;;
22439;SDS011;11387;51.612;7.210;2022-08-01T05:20:57;17.33;;;9.40;;
22439;SDS011;11387;51.612;7.210;2022-08-01T05:24:00;15.85;;;9.82;;
22439;SDS011;11387;51.612;7.210;2022-08-01T05:27:03;20.23;;;11.10;;
22439;SDS011;11387;51.612;7.210;2022-08-01T05:30:08;19.83;;;11.25;;
22439;SDS011;11387;51.612;7.210;2022-08-01T05:33:10;18.85;;;11.02;;
22439;SDS011;11387;51.612;7.210;2022-08-01T05:36:18;20.88;;;12.02;;
22439;SDS011;11387;51.612;7.210;2022-08-01T05:39:29;17.70;;;10.13;;
22439;SDS011;11387;51.612;7.210;2022-08-01T05:42:31;17.83;;;10.57;;
22439;SDS011;11387;51.612;7.210;2022-08-01T05:45:34;21.60;;;9.25;;
22439;SDS011;11387;51.612;7.210;2022-08-01T05:48:37;17.38;;;9.30;;
22439;SDS011;11387;51.612;7.210;2022-08-01T05:51:41;17.02;;;9.55;;
22439;SDS011;11387;51.612;7.210;2022-08-01T05:54:43;16.85;;;9.15;;
22439;SDS011;11387;51.612;7.210;2022-08-01T05:57:46;14.30;;;8.68;;
22439;SDS011;11387;51.612;7.210;2022-08-01T06:00:49;13.00;;;8.43;;
22439;SDS011;11387;51.612;7.210;2022-08-01T06:03:52;18.60;;;7.70;;
22439;SDS011;11387;51.612;7.210;2022-08-01T06:06:56;14.15;;;7.30;;
22439;SDS011;11387;51.612;7.210;2022-08-01T06:09:59;15.95;;;7.70;;
22439;SDS011;11387;51.612;7.210;2022-08-01T06:13:02;11.48;;;6.95;;
22439;SDS011;11387;51.612;7.210;2022-08-01T06:16:05;10.95;;;6.43;;
22439;SDS011;11387;51.612;7.210;2022-08-01T06:19:07;9.57;;;6.55;;
22439;SDS011;11387;51.612;7.210;2022-08-01T06:22:11;11.82;;;7.35;;
22439;SDS011;11387;51.612;7.210;2022-08-01T06:25:14;12.27;;;7.25;;
22439;SDS011;11387;51.612;7.210;2022-08-01T06:28:21;14.18;;;7.57;;
22439;SDS011;11387;51.612;7.210;2022-08-01T06:31:24;12.27;;;7.55;;
22439;SDS011;11387;51.612;7.210;2022-08-01T06:34:33;12.52;;;7.30;;
22439;SDS011;11387;51.612;7.210;2022-08-01T06:37:37;14.48;;;8.23;;
22439;SDS011;11387;51.612;7.210;2022-08-01T06:40:40;13.07;;;6.20;;
22439;SDS011;11387;51.612;7.210;2022-08-01T06:43:43;11.25;;;6.57;;
22439;SDS011;11387;51.612;7.210;2022-08-01T06:46:46;10.85;;;7.00;;
22439;SDS011;11387;51.612;7.210;2022-08-01T06:49:48;15.85;;;6.82;;
22439;SDS011;11387;51.612;7.210;2022-08-01T06:52:52;10.82;;;6.75;;
22439;SDS011;11387;51.612;7.210;2022-08-01T06:55:55;9.02;;;6.07;;
22439;SDS011;11387;51.612;7.210;2022-08-01T06:58:58;9.20;;;5.15;;
22439;SDS011;11387;51.612;7.210;2022-08-01T07:02:02;9.65;;;5.03;;
22439;SDS011;11387;51.612;7.210;2022-08-01T07:05:05;6.85;;;4.70;;
22439;SDS011;11387;51.612;7.210;2022-08-01T07:08:09;6.53;;;4.32;;
22439;SDS011;11387;51.612;7.210;2022-08-01T07:11:12;7.25;;;3.78;;
22439;SDS011;11387;51.612;7.210;2022-08-01T07:14:15;8.27;;;4.85;;
22439;SDS011;11387;51.612;7.210;2022-08-01T07:17:18;5.15;;;2.70;;
22439;SDS011;11387;51.612;7.210;2022-08-01T07:20:21;4.55;;;2.58;;
22439;SDS011;11387;51.612;7.210;2022-08-01T07:23:25;4.70;;;2.20;;
22439;SDS011;11387;51.612;7.210;2022-08-01T07:26:37;4.80;;;2.72;;
22439;SDS011;11387;51.612;7.210;2022-08-01T07:29:53;3.20;;;2.28;;
22439;SDS011;11387;51.612;7.210;2022-08-01T07:32:56;4.50;;;2.95;;
22439;SDS011;11387;51.612;7.210;2022-08-01T07:35:59;5.07;;;2.50;;
22439;SDS011;11387;51.612;7.210;2022-08-01T07:39:03;5.68;;;3.10;;
22439;SDS011;11387;51.612;7.210;2022-08-01T07:42:06;5.40;;;3.05;;
22439;SDS011;11387;51.612;7.210;2022-08-01T07:45:10;4.63;;;3.00;;
22439;SDS011;11387;51.612;7.210;2022-08-01T07:48:13;7.25;;;2.78;;
22439;SDS011;11387;51.612;7.210;2022-08-01T07:51:15;5.88;;;2.70;;
22439;SDS011;11387;51.612;7.210;2022-08-01T07:54:29;3.92;;;2.58;;
22439;SDS011;11387;51.612;7.210;2022-08-01T07:57:34;7.43;;;3.50;;
22439;SDS011;11387;51.612;7.210;2022-08-01T08:00:37;9.10;;;4.82;;
22439;SDS011;11387;51.612;7.210;2022-08-01T08:03:39;6.53;;;4.65;;
22439;SDS011;11387;51.612;7.210;2022-08-01T08:06:42;9.20;;;5.07;;
22439;SDS011;11387;51.612;7.210;2022-08-01T08:09:47;6.38;;;5.13;;
22439;SDS011;11387;51.612;7.210;2022-08-01T08:12:51;6.10;;;4.20;;
22439;SDS011;11387;51.612;7.210;2022-08-01T08:15:54;5.38;;;3.55;;
22439;SDS011;11387;51.612;7.210;2022-08-01T08:18:58;4.38;;;2.75;;
22439;SDS011;11387;51.612;7.210;2022-08-01T08:22:01;5.15;;;2.30;;
22439;SDS011;11387;51.612;7.210;2022-08-01T08:25:06;4.28;;;2.35;;
22439;SDS011;11387;51.612;7.210;2022-08-01T08:28:09;4.00;;;2.20;;
22439;SDS011;11387;51.612;7.210;2022-08-01T08:31:12;3.10;;;1.90;;
22439;SDS011;11387;51.612;7.210;2022-08-01T08:34:26;2.15;;;1.65;;
22439;SDS011;11387;51.612;7.210;2022-08-01T08:37:29;3.72;;;1.23;;
22439;SDS011;11387;51.612;7.210;2022-08-01T08:40:41;1.98;;;1.20;;
22439;SDS011;11387;51.612;7.210;2022-08-01T08:43:43;2.85;;;1.60;;
22439;SDS011;11387;51.612;7.210;2022-08-01T08:46:47;3.53;;;1.47;;
22439;SDS011;11387;51.612;7.210;2022-08-01T08:49:53;3.88;;;1.38;;
22439;SDS011;11387;51.612;7.210;2022-08-01T08:52:56;1.25;;;0.98;;
22439;SDS011;11387;51.612;7.210;2022-08-01T08:56:05;2.47;;;1.20;;
22439;SDS011;11387;51.612;7.210;2022-08-01T08:59:10;1.40;;;1.17;;
22439;SDS011;11387;51.612;7.210;2022-08-01T09:02:14;2.00;;;0.80;;
22439;SDS011;11387;51.612;7.210;2022-08-01T09:05:17;1.48;;;0.85;;
22439;SDS011;11387;51.612;7.210;2022-08-01T09:08:39;0.98;;;0.75;;
22439;SDS011;11387;51.612;7.210;2022-08-01T09:11:43;4.45;;;1.00;;
22439;SDS011;11387;51.612;7.210;2022-08-01T09:14:58;2.20;;;1.10;;
22439;SDS011;11387;51.612;7.210;2022-08-01T09:18:00;2.85;;;0.85;;
22439;SDS011;11387;51.612;7.210;2022-08-01T09:21:10;1.08;;;0.90;;
22439;SDS011;11387;51.612;7.210;2022-08-01T09:24:14;1.75;;;0.80;;
22439;SDS011;11387;51.612;7.210;2022-08-01T09:30:21;3.33;;;0.75;;
22439;SDS011;11387;51.612;7.210;2022-08-01T09:33:28;2.63;;;0.85;;
22439;SDS011;11387;51.612;7.210;2022-08-01T09:39:54;3.17;;;1.00;;
22439;SDS011;11387;51.612;7.210;2022-08-01T09:43:10;1.88;;;1.38;;
22439;SDS011;11387;51.612;7.210;2022-08-01T09:46:16;1.52;;;0.73;;
22439;SDS011;11387;51.612;7.210;2022-08-01T09:49:27;1.27;;;0.93;;
22439;SDS011;11387;51.612;7.210;2022-08-01T09:52:53;1.58;;;0.70;;
22439;SDS011;11387;51.612;7.210;2022-08-01T09:56:08;2.65;;;0.90;;
22439;SDS011;11387;51.612;7.210;2022-08-01T09:59:14;2.20;;;1.00;;
22439;SDS011;11387;51.612;7.210;2022-08-01T10:05:40;4.35;;;0.80;;
22439;SDS011;11387;51.612;7.210;2022-08-01T10:08:50;6.50;;;1.45;;
22439;SDS011;11387;51.612;7.210;2022-08-01T10:11:53;2.45;;;0.65;;
22439;SDS011;11387;51.612;7.210;2022-08-01T10:14:57;2.55;;;0.60;;
22439;SDS011;11387;51.612;7.210;2022-08-01T10:18:01;0.60;;;0.40;;
22439;SDS011;11387;51.612;7.210;2022-08-01T10:21:05;1.55;;;0.35;;
22439;SDS011;11387;51.612;7.210;2022-08-01T10:24:11;0.70;;;0.60;;
22439;SDS011;11387;51.612;7.210;2022-08-01T10:27:19;1.05;;;0.80;;
22439;SDS011;11387;51.612;7.210;2022-08-01T10:30:40;0.70;;;0.70;;
22439;SDS011;11387;51.612;7.210;2022-08-01T10:33:44;2.30;;;0.50;;
22439;SDS011;11387;51.612;7.210;2022-08-01T10:36:54;1.27;;;0.50;;
22439;SDS011;11387;51.612;7.210;2022-08-01T10:39:57;1.23;;;0.40;;
22439;SDS011;11387;51.612;7.210;2022-08-01T10:43:20;1.02;;;0.40;;
22439;SDS011;11387;51.612;7.210;2022-08-01T10:46:23;2.60;;;0.30;;
22439;SDS011;11387;51.612;7.210;2022-08-01T10:49:26;0.70;;;0.30;;
22439;SDS011;11387;51.612;7.210;2022-08-01T10:52:39;1.15;;;0.47;;
22439;SDS011;11387;51.612;7.210;2022-08-01T10:56:16;1.30;;;1.20;;
22439;SDS011;11387;51.612;7.210;2022-08-01T10:59:20;1.77;;;0.30;;
22439;SDS011;11387;51.612;7.210;2022-08-01T11:02:44;9.80;;;0.40;;
22439;SDS011;11387;51.612;7.210;2022-08-01T11:05:58;6.13;;;1.13;;
22439;SDS011;11387;51.612;7.210;2022-08-01T11:09:04;0.28;;;0.22;;
22439;SDS011;11387;51.612;7.210;2022-08-01T11:12:08;1.38;;;0.30;;
22439;SDS011;11387;51.612;7.210;2022-08-01T11:15:23;0.30;;;0.20;;
22439;SDS011;11387;51.612;7.210;2022-08-01T11:18:31;1.23;;;0.30;;
22439;SDS011;11387;51.612;7.210;2022-08-01T11:25:03;4.63;;;0.60;;
22439;SDS011;11387;51.612;7.210;2022-08-01T11:28:17;2.72;;;0.30;;
22439;SDS011;11387;51.612;7.210;2022-08-01T11:31:33;3.10;;;0.30;;
22439;SDS011;11387;51.612;7.210;2022-08-01T11:34:55;1.92;;;0.22;;
22439;SDS011;11387;51.612;7.210;2022-08-01T11:38:03;1.33;;;0.40;;
22439;SDS011;11387;51.612;7.210;2022-08-01T11:41:29;0.28;;;0.28;;
22439;SDS011;11387;51.612;7.210;2022-08-01T11:44:47;3.58;;;2.22;;
22439;SDS011;11387;51.612;7.210;2022-08-01T11:47:50;0.30;;;0.30;;
22439;SDS011;11387;51.612;7.210;2022-08-01T11:50:53;6.25;;;0.55;;
22439;SDS011;11387;51.612;7.210;2022-08-01T11:53:56;0.88;;;0.32;;
22439;SDS011;11387;51.612;7.210;2022-08-01T11:57:02;0.57;;;0.35;;
22439;SDS011;11387;51.612;7.210;2022-08-01T12:00:09;1.67;;;0.40;;
22439;SDS011;11387;51.612;7.210;2022-08-01T12:03:16;0.60;;;0.30;;
22439;SDS011;11387;51.612;7.210;2022-08-01T12:06:33;0.47;;;0.30;;
22439;SDS011;11387;51.612;7.210;2022-08-01T12:09:35;1.25;;;0.50;;
22439;SDS011;11387;51.612;7.210;2022-08-01T12:12:44;1.83;;;0.95;;
22439;SDS011;11387;51.612;7.210;2022-08-01T12:15:47;0.50;;;0.40;;
22439;SDS011;11387;51.612;7.210;2022-08-01T12:18:57;0.80;;;0.43;;
22439;SDS011;11387;51.612;7.210;2022-08-01T12:22:06;2.72;;;0.60;;
22439;SDS011;11387;51.612;7.210;2022-08-01T12:25:09;1.20;;;0.30;;
22439;SDS011;11387;51.612;7.210;2022-08-01T12:28:14;0.63;;;0.35;;
22439;SDS011;11387;51.612;7.210;2022-08-01T12:31:19;0.65;;;0.40;;
22439;SDS011;11387;51.612;7.210;2022-08-01T12:34:32;2.83;;;0.50;;
22439;SDS011;11387;51.612;7.210;2022-08-01T12:37:36;1.35;;;0.73;;
22439;SDS011;11387;51.612;7.210;2022-08-01T12:40:40;0.82;;;0.52;;
22439;SDS011;11387;51.612;7.210;2022-08-01T12:43:47;2.58;;;1.27;;
22439;SDS011;11387;51.612;7.210;2022-08-01T12:49:52;1.42;;;0.70;;
22439;SDS011;11387;51.612;7.210;2022-08-01T12:52:55;2.17;;;0.70;;
22439;SDS011;11387;51.612;7.210;2022-08-01T12:55:58;4.50;;;0.77;;
22439;SDS011;11387;51.612;7.210;2022-08-01T12:59:02;0.47;;;0.40;;
22439;SDS011;11387;51.612;7.210;2022-08-01T13:02:30;0.65;;;0.40;;
22439;SDS011;11387;51.612;7.210;2022-08-01T13:05:43;1.50;;;0.55;;
22439;SDS011;11387;51.612;7.210;2022-08-01T13:08:46;2.13;;;0.60;;
22439;SDS011;11387;51.612;7.210;2022-08-01T13:11:48;0.95;;;0.60;;
22439;SDS011;11387;51.612;7.210;2022-08-01T13:15:22;0.80;;;0.50;;
22439;SDS011;11387;51.612;7.210;2022-08-01T13:18:26;1.83;;;0.70;;
22439;SDS011;11387;51.612;7.210;2022-08-01T13:21:29;0.87;;;0.73;;
22439;SDS011;11387;51.612;7.210;2022-08-01T13:24:51;1.35;;;0.50;;
22439;SDS011;11387;51.612;7.210;2022-08-01T13:31:13;1.20;;;0.60;;
22439;SDS011;11387;51.612;7.210;2022-08-01T13:34:15;6.57;;;1.00;;
22439;SDS011;11387;51.612;7.210;2022-08-01T13:37:18;1.00;;;0.82;;
22439;SDS011;11387;51.612;7.210;2022-08-01T13:40:24;6.22;;;0.90;;
22439;SDS011;11387;51.612;7.210;2022-08-01T13:43:27;1.33;;;0.60;;
22439;SDS011;11387;51.612;7.210;2022-08-01T13:46:51;5.10;;;0.70;;
22439;SDS011;11387;51.612;7.210;2022-08-01T13:49:55;2.97;;;0.85;;
22439;SDS011;11387;51.612;7.210;2022-08-01T13:53:01;1.63;;;0.70;;
22439;SDS011;11387;51.612;7.210;2022-08-01T13:56:04;0.98;;;0.63;;
22439;SDS011;11387;51.612;7.210;2022-08-01T13:59:07;4.15;;;0.93;;
22439;SDS011;11387;51.612;7.210;2022-08-01T14:02:11;5.00;;;1.20;;
22439;SDS011;11387;51.612;7.210;2022-08-01T14:05:13;3.65;;;0.90;;
22439;SDS011;11387;51.612;7.210;2022-08-01T14:08:16;2.38;;;1.00;;
22439;SDS011;11387;51.612;7.210;2022-08-01T14:11:20;2.85;;;0.90;;
22439;SDS011;11387;51.612;7.210;2022-08-01T14:14:23;2.47;;;0.70;;
22439;SDS011;11387;51.612;7.210;2022-08-01T14:17:27;1.73;;;0.90;;
22439;SDS011;11387;51.612;7.210;2022-08-01T14:23:32;3.60;;;1.08;;
22439;SDS011;11387;51.612;7.210;2022-08-01T14:26:34;3.90;;;1.10;;
22439;SDS011;11387;51.612;7.210;2022-08-01T14:29:37;3.08;;;1.15;;
22439;SDS011;11387;51.612;7.210;2022-08-01T14:33:01;2.88;;;1.00;;
22439;SDS011;11387;51.612;7.210;2022-08-01T14:36:04;3.20;;;1.30;;
22439;SDS011;11387;51.612;7.210;2022-08-01T14:39:27;4.18;;;1.20;;
22439;SDS011;11387;51.612;7.210;2022-08-01T14:42:30;4.07;;;1.42;;
22439;SDS011;11387;51.612;7.210;2022-08-01T14:45:33;4.72;;;1.30;;
22439;SDS011;11387;51.612;7.210;2022-08-01T14:48:37;2.20;;;1.17;;
22439;SDS011;11387;51.612;7.210;2022-08-01T14:51:39;3.53;;;1.10;;
22439;SDS011;11387;51.612;7.210;2022-08-01T14:54:42;3.10;;;1.25;;
22439;SDS011;11387;51.612;7.210;2022-08-01T14:57:44;14.38;;;2.35;;
22439;SDS011;11387;51.612;7.210;2022-08-01T15:00:47;9.35;;;2.17;;
22439;SDS011;11387;51.612;7.210;2022-08-01T15:03:51;4.65;;;1.70;;
22439;SDS011;11387;51.612;7.210;2022-08-01T15:06:54;5.55;;;1.95;;
22439;SDS011;11387;51.612;7.210;2022-08-01T15:09:56;13.95;;;2.20;;
22439;SDS011;11387;51.612;7.210;2022-08-01T15:12:59;1.38;;;1.20;;
22439;SDS011;11387;51.612;7.210;2022-08-01T15:16:02;5.03;;;1.50;;
22439;SDS011;11387;51.612;7.210;2022-08-01T15:19:07;2.83;;;1.65;;
22439;SDS011;11387;51.612;7.210;2022-08-01T15:22:10;3.00;;;2.00;;
22439;SDS011;11387;51.612;7.210;2022-08-01T15:25:12;2.50;;;1.30;;
22439;SDS011;11387;51.612;7.210;2022-08-01T15:28:15;5.18;;;1.60;;
22439;SDS011;11387;51.612;7.210;2022-08-01T15:31:18;2.25;;;1.10;;
22439;SDS011;11387;51.612;7.210;2022-08-01T15:34:22;5.30;;;1.52;;
22439;SDS011;11387;51.612;7.210;2022-08-01T15:37:25;2.40;;;1.60;;
22439;SDS011;11387;51.612;7.210;2022-08-01T15:40:27;2.72;;;1.50;;
22439;SDS011;11387;51.612;7.210;2022-08-01T15:43:30;4.28;;;1.75;;
22439;SDS011;11387;51.612;7.210;2022-08-01T15:46:32;4.78;;;1.63;;
22439;SDS011;11387;51.612;7.210;2022-08-01T15:49:36;3.05;;;1.30;;
22439;SDS011;11387;51.612;7.210;2022-08-01T15:52:39;8.77;;;2.45;;
22439;SDS011;11387;51.612;7.210;2022-08-01T15:55:42;4.50;;;1.48;;
22439;SDS011;11387;51.612;7.210;2022-08-01T15:58:53;5.30;;;1.58;;
22439;SDS011;11387;51.612;7.210;2022-08-01T16:01:55;4.43;;;1.45;;
22439;SDS011;11387;51.612;7.210;2022-08-01T16:05:00;5.13;;;1.55;;
22439;SDS011;11387;51.612;7.210;2022-08-01T16:08:02;5.05;;;1.50;;
22439;SDS011;11387;51.612;7.210;2022-08-01T16:11:06;1.67;;;1.33;;
22439;SDS011;11387;51.612;7.210;2022-08-01T16:14:08;4.50;;;1.80;;
22439;SDS011;11387;51.612;7.210;2022-08-01T16:17:11;6.28;;;1.60;;
22439;SDS011;11387;51.612;7.210;2022-08-01T16:20:15;4.53;;;2.15;;
22439;SDS011;11387;51.612;7.210;2022-08-01T16:23:17;5.43;;;2.25;;
22439;SDS011;11387;51.612;7.210;2022-08-01T16:26:20;6.53;;;1.67;;
22439;SDS011;11387;51.612;7.210;2022-08-01T16:29:28;12.05;;;3.30;;
22439;SDS011;11387;51.612;7.210;2022-08-01T16:32:32;4.93;;;3.43;;
22439;SDS011;11387;51.612;7.210;2022-08-01T16:35:47;2.85;;;1.27;;
22439;SDS011;11387;51.612;7.210;2022-08-01T16:38:51;5.68;;;1.50;;
22439;SDS011;11387;51.612;7.210;2022-08-01T16:41:53;7.10;;;2.60;;
22439;SDS011;11387;51.612;7.210;2022-08-01T16:44:56;19.98;;;10.02;;
22439;SDS011;11387;51.612;7.210;2022-08-01T16:47:59;4.05;;;1.63;;
22439;SDS011;11387;51.612;7.210;2022-08-01T16:51:04;6.05;;;1.73;;
22439;SDS011;11387;51.612;7.210;2022-08-01T16:54:06;3.03;;;1.40;;
22439;SDS011;11387;51.612;7.210;2022-08-01T16:57:26;14.15;;;2.90;;
22439;SDS011;11387;51.612;7.210;2022-08-01T17:00:33;4.22;;;1.58;;
22439;SDS011;11387;51.612;7.210;2022-08-01T17:03:36;7.85;;;2.40;;
22439;SDS011;11387;51.612;7.210;2022-08-01T17:06:55;4.72;;;1.80;;
22439;SDS011;11387;51.612;7.210;2022-08-01T17:13:01;3.70;;;1.60;;
22439;SDS011;11387;51.612;7.210;2022-08-01T17:16:04;7.68;;;1.80;;
22439;SDS011;11387;51.612;7.210;2022-08-01T17:19:08;3.60;;;1.23;;
22439;SDS011;11387;51.612;7.210;2022-08-01T17:22:12;5.45;;;1.65;;
22439;SDS011;11387;51.612;7.210;2022-08-01T17:25:15;2.97;;;1.33;;
22439;SDS011;11387;51.612;7.210;2022-08-01T17:28:18;4.50;;;1.30;;
22439;SDS011;11387;51.612;7.210;2022-08-01T17:31:23;4.00;;;1.83;;
22439;SDS011;11387;51.612;7.210;2022-08-01T17:34:25;4.63;;;2.33;;
22439;SDS011;11387;51.612;7.210;2022-08-01T17:37:29;4.55;;;1.95;;
22439;SDS011;11387;51.612;7.210;2022-08-01T17:40:33;6.40;;;1.98;;
22439;SDS011;11387;51.612;7.210;2022-08-01T17:43:41;7.30;;;1.92;;
22439;SDS011;11387;51.612;7.210;2022-08-01T17:46:43;3.88;;;1.60;;
22439;SDS011;11387;51.612;7.210;2022-08-01T17:49:47;4.70;;;1.52;;
22439;SDS011;11387;51.612;7.210;2022-08-01T17:52:58;7.38;;;1.80;;
22439;SDS011;11387;51.612;7.210;2022-08-01T17:56:01;6.60;;;1.45;;
22439;SDS011;11387;51.612;7.210;2022-08-01T17:59:06;6.20;;;1.50;;
22439;SDS011;11387;51.612;7.210;2022-08-01T18:02:08;4.53;;;1.60;;
22439;SDS011;11387;51.612;7.210;2022-08-01T18:05:11;10.90;;;2.30;;
22439;SDS011;11387;51.612;7.210;2022-08-01T18:08:17;5.05;;;1.92;;
22439;SDS011;11387;51.612;7.210;2022-08-01T18:11:20;5.03;;;1.60;;
22439;SDS011;11387;51.612;7.210;2022-08-01T18:14:25;4.13;;;1.60;;
22439;SDS011;11387;51.612;7.210;2022-08-01T18:17:41;7.22;;;1.90;;
22439;SDS011;11387;51.612;7.210;2022-08-01T18:20:44;6.15;;;2.00;;
22439;SDS011;11387;51.612;7.210;2022-08-01T18:23:48;4.68;;;1.70;;
22439;SDS011;11387;51.612;7.210;2022-08-01T18:26:52;4.07;;;1.80;;
22439;SDS011;11387;51.612;7.210;2022-08-01T18:29:55;4.93;;;1.90;;
22439;SDS011;11387;51.612;7.210;2022-08-01T18:32:58;12.75;;;2.25;;
22439;SDS011;11387;51.612;7.210;2022-08-01T18:36:01;8.38;;;2.28;;
22439;SDS011;11387;51.612;7.210;2022-08-01T18:39:06;8.60;;;2.40;;
22439;SDS011;11387;51.612;7.210;2022-08-01T18:42:10;4.65;;;2.05;;
22439;SDS011;11387;51.612;7.210;2022-08-01T18:45:13;7.15;;;1.80;;
22439;SDS011;11387;51.612;7.210;2022-08-01T18:48:16;8.70;;;2.28;;
22439;SDS011;11387;51.612;7.210;2022-08-01T18:51:19;9.32;;;2.03;;
22439;SDS011;11387;51.612;7.210;2022-08-01T18:54:22;9.60;;;2.15;;
22439;SDS011;11387;51.612;7.210;2022-08-01T18:57:25;6.13;;;2.30;;
22439;SDS011;11387;51.612;7.210;2022-08-01T19:00:28;5.90;;;2.15;;
22439;SDS011;11387;51.612;7.210;2022-08-01T19:03:31;7.65;;;2.17;;